createdAt,value
2023-05-14T00:00:29.593Z,101715.00
2023-05-14T00:02:56.534Z,101713.00
2023-05-14T00:05:23.402Z,101707.00
2023-05-14T00:07:49.953Z,101704.00
2023-05-14T00:10:17.721Z,101707.00
2023-05-14T00:12:44.191Z,101704.00
2023-05-14T00:15:11.038Z,101692.00
2023-05-14T00:17:37.934Z,101696.00
2023-05-14T00:20:07.280Z,101693.00
2023-05-14T00:22:34.619Z,101687.00
2023-05-14T00:25:01.124Z,101684.00
2023-05-14T00:27:27.907Z,101686.00
2023-05-14T00:29:54.443Z,101692.00
2023-05-14T00:32:21.179Z,101695.00
2023-05-14T00:34:48.074Z,101686.00
2023-05-14T00:37:14.807Z,101682.00
2023-05-14T00:39:41.286Z,101678.00
2023-05-14T00:42:07.773Z,101674.00
2023-05-14T00:44:34.348Z,101679.00
2023-05-14T00:47:00.875Z,101677.00
2023-05-14T00:49:29.378Z,101674.00
2023-05-14T00:51:58.930Z,101679.00
2023-05-14T00:54:25.561Z,101677.00
2023-05-14T00:56:52.834Z,101666.00
2023-05-14T00:59:21.678Z,101677.00
2023-05-14T01:01:48.681Z,101680.00
2023-05-14T01:04:16.172Z,101678.00
2023-05-14T01:06:59.639Z,101678.00
2023-05-14T01:10:01.586Z,101673.00
2023-05-14T01:12:58.242Z,101679.00
2023-05-14T01:15:28.736Z,101677.00
2023-05-14T01:18:00.125Z,101671.00
2023-05-14T01:20:29.640Z,101678.00
2023-05-14T01:22:56.138Z,101678.00
2023-05-14T01:25:22.969Z,101676.00
2023-05-14T01:27:53.056Z,101673.00
2023-05-14T01:30:26.656Z,101671.00
2023-05-14T01:32:56.232Z,101676.00
2023-05-14T01:35:27.000Z,101677.00
2023-05-14T01:38:01.733Z,101674.00
2023-05-14T01:40:29.089Z,101664.00
2023-05-14T01:42:56.646Z,101656.00
2023-05-14T01:45:28.179Z,101656.00
2023-05-14T01:47:55.902Z,101650.00
2023-05-14T01:50:22.891Z,101656.00
2023-05-14T01:52:49.615Z,101652.00
2023-05-14T01:55:16.126Z,101655.00
2023-05-14T01:57:42.905Z,101653.00
2023-05-14T02:00:09.594Z,101649.00
2023-05-14T02:02:37.438Z,101650.00
2023-05-14T02:05:06.790Z,101641.00
2023-05-14T02:07:35.219Z,101653.00
2023-05-14T02:10:02.969Z,101648.00
2023-05-14T02:12:29.670Z,101651.00
2023-05-14T02:14:56.202Z,101651.00
2023-05-14T02:17:22.886Z,101641.00
2023-05-14T02:19:49.822Z,101646.00
2023-05-14T02:22:16.381Z,101642.00
2023-05-14T02:24:43.180Z,101643.00
2023-05-14T02:27:10.198Z,101643.00
2023-05-14T02:29:36.745Z,101641.00
2023-05-14T02:32:03.634Z,101646.00
2023-05-14T02:34:30.462Z,101651.00
2023-05-14T02:36:59.483Z,101644.00
2023-05-14T02:39:25.994Z,101644.00
2023-05-14T02:41:52.765Z,101638.00
2023-05-14T02:44:19.537Z,101648.00
2023-05-14T02:46:46.683Z,101645.00
2023-05-14T02:49:13.405Z,101644.00
2023-05-14T02:51:40.133Z,101634.00
2023-05-14T02:54:08.682Z,101638.00
2023-05-14T02:56:35.193Z,101638.00
2023-05-14T02:59:01.703Z,101639.00
2023-05-14T03:01:28.781Z,101641.00
2023-05-14T03:03:56.019Z,101643.00
2023-05-14T03:06:22.557Z,101641.00
2023-05-14T03:08:50.617Z,101646.00
2023-05-14T03:11:18.185Z,101645.00
2023-05-14T03:13:44.706Z,101642.00
2023-05-14T03:16:13.184Z,101630.00
2023-05-14T03:18:39.751Z,101636.00
2023-05-14T03:21:06.788Z,101640.00
2023-05-14T03:23:35.139Z,101629.00
2023-05-14T03:26:02.433Z,101638.00
2023-05-14T03:28:29.027Z,101633.00
2023-05-14T03:30:55.939Z,101629.00
2023-05-14T03:33:22.867Z,101638.00
2023-05-14T03:35:49.410Z,101636.00
2023-05-14T03:38:17.978Z,101638.00
2023-05-14T03:40:45.394Z,101628.00
2023-05-14T03:43:11.954Z,101627.00
2023-05-14T03:45:38.884Z,101623.00
2023-05-14T03:48:05.947Z,101617.00
2023-05-14T03:50:32.783Z,101623.00
2023-05-14T03:52:59.567Z,101620.00
2023-05-14T03:55:28.563Z,101618.00
2023-05-14T03:57:55.368Z,101616.00
2023-05-14T04:00:22.098Z,101613.00
2023-05-14T04:02:48.885Z,101613.00
2023-05-14T04:05:15.829Z,101615.00
2023-05-14T04:07:43.043Z,101607.00
2023-05-14T04:10:09.796Z,101614.00
2023-05-14T04:12:36.249Z,101619.00
2023-05-14T04:15:02.847Z,101612.00
2023-05-14T04:17:29.460Z,101619.00
2023-05-14T04:19:55.996Z,101616.00
2023-05-14T04:22:22.487Z,101612.00
2023-05-14T04:24:49.304Z,101612.00
2023-05-14T04:27:21.555Z,101603.00
2023-05-14T04:29:50.530Z,101612.00
2023-05-14T04:32:18.321Z,101604.00
2023-05-14T04:34:45.434Z,101604.00
2023-05-14T04:37:12.289Z,101601.00
2023-05-14T04:39:38.855Z,101602.00
2023-05-14T04:42:07.089Z,101608.00
2023-05-14T04:44:37.681Z,101604.00
2023-05-14T04:47:04.561Z,101608.00
2023-05-14T04:49:31.111Z,101606.00
2023-05-14T04:51:58.150Z,101602.00
2023-05-14T04:54:24.951Z,101604.00
2023-05-14T04:56:53.176Z,101608.00
2023-05-14T04:59:20.000Z,101605.00
2023-05-14T05:01:47.446Z,101598.00
2023-05-14T05:04:14.236Z,101603.00
2023-05-14T05:06:40.734Z,101599.00
2023-05-14T05:09:08.647Z,101598.00
2023-05-14T05:11:35.260Z,101597.00
2023-05-14T05:14:02.002Z,101594.00
2023-05-14T05:16:28.586Z,101595.00
2023-05-14T05:18:55.506Z,101594.00
2023-05-14T05:21:22.319Z,101586.00
2023-05-14T05:23:50.319Z,101586.00
2023-05-14T05:26:16.811Z,101585.00
2023-05-14T05:28:45.834Z,101581.00
2023-05-14T05:31:12.959Z,101588.00
2023-05-14T05:33:39.534Z,101581.00
2023-05-14T05:36:06.375Z,101583.00
2023-05-14T05:38:32.827Z,101582.00
2023-05-14T05:40:59.424Z,101582.00
2023-05-14T05:43:25.960Z,101585.00
2023-05-14T05:45:52.697Z,101585.00
2023-05-14T05:48:19.215Z,101585.00
2023-05-14T05:50:47.564Z,101585.00
2023-05-14T05:53:14.069Z,101579.00
2023-05-14T05:55:41.179Z,101563.00
2023-05-14T05:58:08.089Z,101569.00
2023-05-14T06:00:35.167Z,101566.00
2023-05-14T06:03:01.703Z,101575.00
2023-05-14T06:05:28.527Z,101568.00
2023-05-14T06:07:55.351Z,101575.00
2023-05-14T06:10:22.208Z,101578.00
2023-05-14T06:12:49.389Z,101583.00
2023-05-14T06:15:16.495Z,101573.00
2023-05-14T06:17:43.344Z,101574.00
2023-05-14T06:20:10.072Z,101559.00
2023-05-14T06:22:38.588Z,101578.00
2023-05-14T06:25:05.387Z,101568.00
2023-05-14T06:27:31.902Z,101557.00
2023-05-14T06:29:58.385Z,101565.00
2023-05-14T06:32:24.963Z,101581.00
2023-05-14T06:34:51.543Z,101555.00
2023-05-14T06:37:18.098Z,101583.00
2023-05-14T06:39:49.956Z,101576.00
2023-05-14T06:42:17.371Z,101580.00
2023-05-14T06:44:44.515Z,101577.00
2023-05-14T06:47:11.313Z,101585.00
2023-05-14T06:49:38.615Z,101574.00
2023-05-14T06:52:05.518Z,101574.00
2023-05-14T06:54:32.343Z,101580.00
2023-05-14T06:56:59.174Z,101583.00
2023-05-14T06:59:26.074Z,101584.00
2023-05-14T07:01:52.631Z,101579.00
2023-05-14T07:04:19.270Z,101587.00
2023-05-14T07:06:46.320Z,101574.00
2023-05-14T07:09:13.393Z,101579.00
2023-05-14T07:11:39.912Z,101577.00
2023-05-14T07:14:06.378Z,101577.00
2023-05-14T07:16:32.950Z,101575.00
2023-05-14T07:18:59.553Z,101577.00
2023-05-14T07:21:26.422Z,101577.00
2023-05-14T07:23:52.906Z,101574.00
2023-05-14T07:26:19.423Z,101576.00
2023-05-14T07:28:46.377Z,101571.00
2023-05-14T07:31:13.774Z,101574.00
2023-05-14T07:33:40.673Z,101572.00
2023-05-14T07:36:07.671Z,101570.00
2023-05-14T07:38:36.371Z,101568.00
2023-05-14T07:41:03.257Z,101573.00
2023-05-14T07:43:29.725Z,101563.00
2023-05-14T07:45:56.592Z,101560.00
2023-05-14T07:48:23.662Z,101558.00
2023-05-14T07:50:50.312Z,101560.00
2023-05-14T07:53:17.055Z,101556.00
2023-05-14T07:55:45.037Z,101552.00
2023-05-14T07:58:11.656Z,101549.00
2023-05-14T08:00:38.368Z,101543.00
2023-05-14T08:03:06.893Z,101545.00
2023-05-14T08:05:33.525Z,101543.00
2023-05-14T08:08:00.009Z,101547.00
2023-05-14T08:10:28.694Z,101546.00
2023-05-14T08:12:55.716Z,101547.00
2023-05-14T08:15:24.016Z,101549.00
2023-05-14T08:17:51.740Z,101544.00
2023-05-14T08:20:19.475Z,101541.00
2023-05-14T08:22:46.221Z,101538.00
2023-05-14T08:25:12.873Z,101532.00
2023-05-14T08:27:42.061Z,101537.00
2023-05-14T08:30:08.818Z,101526.00
2023-05-14T08:32:35.824Z,101530.00
2023-05-14T08:35:02.405Z,101524.00
2023-05-14T08:37:32.472Z,101526.00
2023-05-14T08:39:59.103Z,101528.00
2023-05-14T08:42:27.043Z,101521.00
2023-05-14T08:45:00.777Z,101518.00
2023-05-14T08:47:31.197Z,101513.00
2023-05-14T08:50:07.688Z,101509.00
2023-05-14T08:52:35.228Z,101514.00
2023-05-14T08:55:05.627Z,101508.00
2023-05-14T08:57:36.067Z,101499.00
2023-05-14T09:00:08.971Z,101506.00
2023-05-14T09:02:37.405Z,101499.00
2023-05-14T09:05:04.492Z,101503.00
2023-05-14T09:07:31.136Z,101497.00
2023-05-14T09:09:58.452Z,101501.00
2023-05-14T09:12:26.556Z,101496.00
2023-05-14T09:14:56.146Z,101497.00
2023-05-14T09:17:28.563Z,101490.00
2023-05-14T09:19:56.220Z,101494.00
2023-05-14T09:22:23.108Z,101491.00
2023-05-14T09:25:09.757Z,101487.00
2023-05-14T09:27:36.781Z,101482.00
2023-05-14T09:30:06.649Z,101481.00
2023-05-14T09:32:38.161Z,101461.00
2023-05-14T09:35:17.645Z,101472.00
2023-05-14T09:37:46.708Z,101470.00
2023-05-14T09:40:14.065Z,101460.00
2023-05-14T09:42:41.336Z,101457.00
2023-05-14T09:45:12.133Z,101445.00
2023-05-14T09:47:39.482Z,101439.00
2023-05-14T09:50:06.881Z,101433.00
2023-05-14T09:52:34.210Z,101436.00
2023-05-14T09:55:02.292Z,101440.00
2023-05-14T09:57:29.060Z,101427.00
2023-05-14T10:00:00.278Z,101431.00
2023-05-14T10:02:34.555Z,101428.00
2023-05-14T10:05:05.066Z,101422.00
2023-05-14T10:07:35.017Z,101417.00
2023-05-14T10:10:11.706Z,101421.00
2023-05-14T10:12:39.352Z,101416.00
2023-05-14T10:15:16.706Z,101409.00
2023-05-14T10:17:49.400Z,101407.00
2023-05-14T10:20:17.713Z,101411.00
2023-05-14T10:22:46.310Z,101412.00
2023-05-14T10:25:12.849Z,101395.00
2023-05-14T10:27:40.834Z,101393.00
2023-05-14T10:30:12.975Z,101409.00
2023-05-14T10:32:41.830Z,101398.00
2023-05-14T10:35:26.018Z,101393.00
2023-05-14T10:37:52.594Z,101372.00
2023-05-14T10:40:23.688Z,101406.00
2023-05-14T10:42:54.674Z,101397.00
2023-05-14T10:45:22.933Z,101400.00
2023-05-14T10:47:49.558Z,101393.00
2023-05-14T10:50:17.872Z,101398.00
2023-05-14T10:52:45.864Z,101386.00
2023-05-14T10:55:19.351Z,101387.00
2023-05-14T10:57:46.880Z,101372.00
2023-05-14T11:00:14.980Z,101360.00
2023-05-14T11:02:43.514Z,101368.00
2023-05-14T11:05:14.386Z,101377.00
2023-05-14T11:07:50.614Z,101378.00
2023-05-14T11:10:20.061Z,101377.00
2023-05-14T11:12:52.732Z,101379.00
2023-05-14T11:15:26.278Z,101372.00
2023-05-14T11:17:53.906Z,101374.00
2023-05-14T11:20:21.107Z,101367.00
2023-05-14T11:22:49.356Z,101365.00
2023-05-14T11:25:18.579Z,101370.00
2023-05-14T11:27:46.558Z,101366.00
2023-05-14T11:30:15.105Z,101368.00
2023-05-14T11:32:43.867Z,101367.00
2023-05-14T11:35:10.486Z,101361.00
2023-05-14T11:37:36.950Z,101351.00
2023-05-14T11:40:10.317Z,101357.00
2023-05-14T11:42:37.701Z,101355.00
2023-05-14T11:45:05.220Z,101338.00
2023-05-14T11:47:31.930Z,101342.00
2023-05-14T11:50:01.299Z,101331.00
2023-05-14T11:52:27.878Z,101332.00
2023-05-14T11:54:54.348Z,101325.00
2023-05-14T11:57:21.987Z,101327.00
2023-05-14T11:59:49.649Z,101325.00
2023-05-14T12:02:18.743Z,101315.00
2023-05-14T12:04:50.182Z,101314.00
2023-05-14T12:07:17.003Z,101323.00
2023-05-14T12:09:51.620Z,101320.00
2023-05-14T12:12:22.010Z,101321.00
2023-05-14T12:14:52.557Z,101323.00
2023-05-14T12:17:22.956Z,101310.00
2023-05-14T12:19:52.037Z,101314.00
2023-05-14T12:22:24.108Z,101313.00
2023-05-14T12:24:58.661Z,101320.00
2023-05-14T12:27:29.941Z,101306.00
2023-05-14T12:30:13.057Z,101307.00
2023-05-14T12:32:47.078Z,101308.00
2023-05-14T12:35:13.871Z,101309.00
2023-05-14T12:37:42.906Z,101310.00
2023-05-14T12:40:09.882Z,101308.00
2023-05-14T12:42:36.492Z,101309.00
2023-05-14T12:45:06.051Z,101298.00
2023-05-14T12:47:34.103Z,101300.00
2023-05-14T12:50:02.323Z,101299.00
2023-05-14T12:55:02.648Z,101278.00
2023-05-14T12:57:30.223Z,101280.00
2023-05-14T12:59:57.420Z,101269.00
2023-05-14T13:02:24.230Z,101271.00
2023-05-14T13:04:50.730Z,101269.00
2023-05-14T13:07:17.560Z,101257.00
2023-05-14T13:09:44.238Z,101248.00
2023-05-14T13:12:11.187Z,101256.00
2023-05-14T13:14:37.933Z,101248.00
2023-05-14T13:17:05.223Z,101238.00
2023-05-14T13:19:31.963Z,101239.00
2023-05-14T13:21:58.482Z,101232.00
2023-05-14T13:24:25.332Z,101204.00
2023-05-14T13:26:51.888Z,101207.00
2023-05-14T13:29:19.867Z,101231.00
2023-05-14T13:31:46.337Z,101234.00
2023-05-14T13:34:13.226Z,101223.00
2023-05-14T13:36:41.469Z,101236.00
2023-05-14T13:39:08.009Z,101242.00
2023-05-14T13:41:37.851Z,101231.00
2023-05-14T13:44:04.736Z,101235.00
2023-05-14T13:46:31.258Z,101226.00
2023-05-14T13:48:58.406Z,101230.00
2023-05-14T13:51:24.925Z,101230.00
2023-05-14T13:53:51.458Z,101227.00
2023-05-14T13:56:18.226Z,101227.00
2023-05-14T13:58:44.789Z,101222.00
2023-05-14T14:01:11.592Z,101227.00
2023-05-14T14:03:38.139Z,101217.00
2023-05-14T14:06:04.669Z,101211.00
2023-05-14T14:08:31.688Z,101209.00
2023-05-14T14:10:59.560Z,101205.00
2023-05-14T14:13:26.188Z,101201.00
2023-05-14T14:15:55.864Z,101196.00
2023-05-14T14:18:22.460Z,101199.00
2023-05-14T14:20:49.068Z,101185.00
2023-05-14T14:23:16.019Z,101184.00
2023-05-14T14:25:42.564Z,101177.00
2023-05-14T14:28:09.139Z,101179.00
2023-05-14T14:30:35.697Z,101181.00
2023-05-14T14:33:02.322Z,101191.00
2023-05-14T14:35:28.948Z,101186.00
2023-05-14T14:37:56.609Z,101188.00
2023-05-14T14:40:24.072Z,101191.00
2023-05-14T14:42:50.952Z,101192.00
2023-05-14T14:45:21.776Z,101193.00
2023-05-14T14:47:49.616Z,101185.00
2023-05-14T14:50:17.926Z,101184.00
2023-05-14T14:52:46.236Z,101179.00
2023-05-14T14:55:12.904Z,101180.00
2023-05-14T14:57:39.452Z,101177.00
2023-05-14T15:00:07.679Z,101184.00
2023-05-14T15:02:38.524Z,101183.00
2023-05-14T15:05:06.409Z,101178.00
2023-05-14T15:07:36.387Z,101169.00
2023-05-14T15:10:02.879Z,101171.00
2023-05-14T15:12:30.629Z,101167.00
2023-05-14T15:14:57.207Z,101164.00
2023-05-14T15:17:29.405Z,101173.00
2023-05-14T15:19:58.687Z,101167.00
2023-05-14T15:22:25.169Z,101165.00
2023-05-14T15:24:52.372Z,101160.00
2023-05-14T15:27:18.905Z,101154.00
2023-05-14T15:29:45.714Z,101153.00
2023-05-14T15:32:12.226Z,101154.00
2023-05-14T15:34:39.178Z,101144.00
2023-05-14T15:37:07.133Z,101144.00
2023-05-14T15:39:33.610Z,101143.00
2023-05-14T15:42:00.250Z,101142.00
2023-05-14T15:44:26.770Z,101147.00
2023-05-14T15:46:53.601Z,101142.00
2023-05-14T15:49:20.192Z,101133.00
2023-05-14T15:51:47.097Z,101136.00
2023-05-14T15:54:13.702Z,101130.00
2023-05-14T15:56:40.334Z,101130.00
2023-05-14T15:59:06.867Z,101129.00
2023-05-14T16:01:33.685Z,101119.00
2023-05-14T16:04:00.251Z,101115.00
2023-05-14T16:06:28.391Z,101114.00
2023-05-14T16:08:57.204Z,101114.00
2023-05-14T16:11:23.753Z,101110.00
2023-05-14T16:13:53.986Z,101113.00
2023-05-14T16:16:22.892Z,101109.00
2023-05-14T16:18:52.141Z,101109.00
2023-05-14T16:21:18.871Z,101105.00
2023-05-14T16:23:45.582Z,101103.00
2023-05-14T16:26:12.123Z,101100.00
2023-05-14T16:28:44.005Z,101102.00
2023-05-14T16:31:10.846Z,101103.00
2023-05-14T16:33:37.476Z,101106.00
2023-05-14T16:36:04.050Z,101104.00
2023-05-14T16:38:30.588Z,101101.00
2023-05-14T16:41:00.290Z,101090.00
2023-05-14T16:43:27.099Z,101091.00
2023-05-14T16:45:53.592Z,101081.00
2023-05-14T16:48:20.316Z,101077.00
2023-05-14T16:50:46.849Z,101078.00
2023-05-14T16:53:13.374Z,101071.00
2023-05-14T16:55:39.849Z,101074.00
2023-05-14T16:58:06.461Z,101081.00
2023-05-14T17:00:33.194Z,101075.00
2023-05-14T17:03:00.213Z,101076.00
2023-05-14T17:05:28.095Z,101082.00
2023-05-14T17:07:56.729Z,101094.00
2023-05-14T17:10:25.840Z,101085.00
2023-05-14T17:12:53.076Z,101085.00
2023-05-14T17:15:19.503Z,101081.00
2023-05-14T17:17:46.154Z,101085.00
2023-05-14T17:20:14.127Z,101087.00
2023-05-14T17:22:42.893Z,101084.00
2023-05-14T17:25:09.742Z,101086.00
2023-05-14T17:27:36.489Z,101076.00
2023-05-14T17:30:03.794Z,101089.00
2023-05-14T17:32:31.191Z,101088.00
2023-05-14T17:34:57.895Z,101091.00
2023-05-14T17:37:25.604Z,101091.00
2023-05-14T17:39:52.753Z,101093.00
2023-05-14T17:42:19.257Z,101091.00
2023-05-14T17:44:46.507Z,101083.00
2023-05-14T17:47:13.753Z,101090.00
2023-05-14T17:49:40.234Z,101087.00
2023-05-14T17:52:07.475Z,101086.00
2023-05-14T17:54:34.203Z,101087.00
2023-05-14T17:57:00.774Z,101095.00
2023-05-14T17:59:32.471Z,101093.00
2023-05-14T18:01:59.195Z,101088.00
2023-05-14T18:04:25.980Z,101094.00
2023-05-14T18:06:57.582Z,101091.00
2023-05-14T18:09:24.082Z,101093.00
2023-05-14T18:11:50.933Z,101100.00
2023-05-14T18:14:18.769Z,101094.00
2023-05-14T18:16:45.632Z,101092.00
2023-05-14T18:19:13.928Z,101093.00
2023-05-14T18:21:43.032Z,101090.00
2023-05-14T18:24:09.740Z,101086.00
2023-05-14T18:26:36.249Z,101093.00
2023-05-14T18:29:02.782Z,101091.00
2023-05-14T18:31:29.504Z,101095.00
2023-05-14T18:33:56.324Z,101093.00
2023-05-14T18:36:23.940Z,101096.00
2023-05-14T18:38:50.709Z,101095.00
2023-05-14T18:41:17.209Z,101094.00
2023-05-14T18:43:43.957Z,101100.00
2023-05-14T18:46:14.695Z,101100.00
2023-05-14T18:48:42.591Z,101094.00
2023-05-14T18:51:11.302Z,101095.00
2023-05-14T18:53:38.814Z,101110.00
2023-05-14T18:56:05.237Z,101096.00
2023-05-14T18:58:31.857Z,101107.00
2023-05-14T19:00:59.105Z,101105.00
2023-05-14T19:03:26.045Z,101106.00
2023-05-14T19:05:53.391Z,101103.00
2023-05-14T19:08:20.065Z,101106.00
2023-05-14T19:10:47.673Z,101102.00
2023-05-14T19:13:17.273Z,101101.00
2023-05-14T19:15:44.552Z,101110.00
2023-05-14T19:18:13.325Z,101104.00
2023-05-14T19:20:40.092Z,101105.00
2023-05-14T19:23:06.853Z,101102.00
2023-05-14T19:25:34.012Z,101099.00
2023-05-14T19:28:02.240Z,101099.00
2023-05-14T19:30:29.459Z,101094.00
2023-05-14T19:32:57.312Z,101091.00
2023-05-14T19:35:25.233Z,101094.00
2023-05-14T19:37:51.995Z,101102.00
2023-05-14T19:40:18.821Z,101094.00
2023-05-14T19:42:45.284Z,101100.00
2023-05-14T19:45:12.022Z,101096.00
2023-05-14T19:47:38.914Z,101090.00
2023-05-14T19:50:05.858Z,101084.00
2023-05-14T19:52:32.639Z,101085.00
2023-05-14T19:54:59.325Z,101087.00
2023-05-14T19:57:26.693Z,101080.00
2023-05-14T19:59:53.290Z,101074.00
2023-05-14T20:02:21.832Z,101078.00
2023-05-14T20:04:48.416Z,101073.00
2023-05-14T20:07:15.921Z,101061.00
2023-05-14T20:09:44.066Z,101059.00
2023-05-14T20:12:12.858Z,101062.00
2023-05-14T20:14:44.630Z,101061.00
2023-05-14T20:17:11.209Z,101065.00
2023-05-14T20:19:39.043Z,101069.00
2023-05-14T20:22:06.708Z,101067.00
2023-05-14T20:24:33.354Z,101063.00
2023-05-14T20:27:00.015Z,101061.00
2023-05-14T20:29:26.976Z,101064.00
2023-05-14T20:31:58.976Z,101068.00
2023-05-14T20:34:25.917Z,101056.00
2023-05-14T20:36:52.444Z,101058.00
2023-05-14T20:39:19.629Z,101048.00
2023-05-14T20:41:46.594Z,101049.00
2023-05-14T20:44:13.196Z,101046.00
2023-05-14T20:46:39.861Z,101045.00
2023-05-14T20:49:06.843Z,101038.00
2023-05-14T20:51:33.451Z,101032.00
2023-05-14T20:54:00.090Z,101034.00
2023-05-14T20:56:26.639Z,101028.00
2023-05-14T20:58:53.128Z,101032.00
2023-05-14T21:01:19.915Z,101035.00
2023-05-14T21:03:46.796Z,101033.00
2023-05-14T21:06:14.189Z,101028.00
2023-05-14T21:08:40.781Z,101027.00
2023-05-14T21:11:07.758Z,101029.00
2023-05-14T21:13:34.472Z,101022.00
2023-05-14T21:16:02.214Z,101024.00
2023-05-14T21:18:30.864Z,101020.00
2023-05-14T21:20:57.658Z,101020.00
2023-05-14T21:23:24.212Z,101018.00
2023-05-14T21:25:51.379Z,101014.00
2023-05-14T21:28:17.971Z,101012.00
2023-05-14T21:30:44.821Z,101012.00
2023-05-14T21:33:11.754Z,101006.00
2023-05-14T21:35:38.310Z,101005.00
2023-05-14T21:38:07.374Z,101001.00
2023-05-14T21:40:33.882Z,101002.00
2023-05-14T21:43:00.911Z,100996.00
2023-05-14T21:45:27.655Z,100998.00
2023-05-14T21:47:54.833Z,101004.00
2023-05-14T21:50:21.690Z,100996.00
2023-05-14T21:52:48.364Z,101000.00
2023-05-14T21:55:14.874Z,101001.00
2023-05-14T21:57:41.625Z,101002.00
2023-05-14T22:00:12.588Z,100994.00
2023-05-14T22:02:39.782Z,100995.00
2023-05-14T22:05:06.670Z,100981.00
2023-05-14T22:07:33.160Z,100979.00
2023-05-14T22:09:59.900Z,100986.00
2023-05-14T22:12:26.840Z,100979.00
2023-05-14T22:14:53.447Z,100978.00
2023-05-14T22:17:20.202Z,100970.00
2023-05-14T22:19:46.736Z,100970.00
2023-05-14T22:22:13.379Z,100965.00
2023-05-14T22:24:39.933Z,100963.00
2023-05-14T22:27:06.676Z,100960.00
2023-05-14T22:29:33.269Z,100960.00
2023-05-14T22:31:59.808Z,100961.00
2023-05-14T22:34:26.372Z,100961.00
2023-05-14T22:36:52.987Z,100952.00
2023-05-14T22:39:19.569Z,100952.00
2023-05-14T22:41:46.153Z,100955.00
2023-05-14T22:44:12.929Z,100944.00
2023-05-14T22:46:40.080Z,100947.00
2023-05-14T22:49:06.588Z,100940.00
2023-05-14T22:51:33.170Z,100941.00
2023-05-14T22:53:59.783Z,100936.00
2023-05-14T22:56:27.848Z,100941.00
2023-05-14T22:58:54.628Z,100940.00
2023-05-14T23:01:21.115Z,100946.00
2023-05-14T23:03:47.790Z,100938.00
2023-05-14T23:06:14.769Z,100938.00
2023-05-14T23:08:42.459Z,100938.00
2023-05-14T23:11:08.929Z,100933.00
2023-05-14T23:13:35.550Z,100931.00
2023-05-14T23:16:02.111Z,100926.00
2023-05-14T23:18:32.634Z,100929.00
2023-05-14T23:20:59.232Z,100919.00
2023-05-14T23:23:25.820Z,100926.00
2023-05-14T23:25:52.408Z,100920.00
2023-05-14T23:28:19.373Z,100919.00
2023-05-14T23:30:45.888Z,100904.00
2023-05-14T23:33:12.655Z,100909.00
2023-05-14T23:35:39.353Z,100907.00
2023-05-14T23:38:06.350Z,100903.00
2023-05-14T23:40:33.281Z,100899.00
2023-05-14T23:43:00.556Z,100896.00
2023-05-14T23:45:27.657Z,100884.00
2023-05-14T23:47:55.176Z,100887.00
2023-05-14T23:50:21.948Z,100880.00
2023-05-14T23:52:48.532Z,100896.00
2023-05-14T23:55:16.287Z,100880.00
2023-05-14T23:57:42.763Z,100875.00
